Time;durP1;ratioP1;P1;durP2;ratioP2;P2;SDS_P1;SDS_P2;PMS_P1;PMS_P2;Temp;Humidity;BMP_temperature;BMP_pressure;BME280_temperature;BME280_humidity;BME280_pressure;Samples;Min_cycle;Max_cycle;Signal;HPM_P1;HPM_P2
2020/12/01 00:00:42;;;;;;;130.55;34.60;;;;;;;9.06;76.79;101157.19;5014216;28;20041;-76
2020/12/01 00:03:08;;;;;;;135.48;32.92;;;;;;;9.06;76.58;101157.19;5031477;28;20033;-78
2020/12/01 00:05:34;;;;;;;116.68;32.10;;;;;;;9.08;76.83;101155.34;5014192;28;20652;-77
2020/12/01 00:08:00;;;;;;;144.48;35.05;;;;;;;9.10;76.96;101158.81;5012876;28;20038;-76
2020/12/01 00:10:26;;;;;;;115.60;32.72;;;;;;;9.12;76.70;101156.97;5014121;28;20075;-77
2020/12/01 00:12:52;;;;;;;128.95;33.17;;;;;;;9.15;76.79;101162.16;5013543;28;20044;-77
2020/12/01 00:15:21;;;;;;;134.48;33.67;;;;;;;9.19;76.80;101164.69;5031876;28;20073;-77
2020/12/01 00:17:48;;;;;;;141.13;35.17;;;;;;;9.22;76.78;101162.78;5012243;28;20095;-77
2020/12/01 00:20:17;;;;;;;127.93;32.85;;;;;;;9.24;76.93;101154.81;5013664;28;20047;-77
2020/12/01 00:22:43;;;;;;;123.50;33.78;;;;;;;9.26;76.72;101158.28;5012767;28;20045;-76
2020/12/01 00:25:09;;;;;;;119.88;31.60;;;;;;;9.28;77.03;101156.44;5032627;28;20411;-77
2020/12/01 00:27:35;;;;;;;143.40;34.28;;;;;;;9.27;76.76;101160.00;5013937;28;20413;-77
2020/12/01 00:30:24;;;;;;;153.18;36.40;;;;;;;9.28;77.04;101156.44;5013135;28;20037;-76
2020/12/01 00:32:51;;;;;;;121.28;32.83;;;;;;;9.30;77.05;101149.31;5002265;28;20042;-77
2020/12/01 00:35:26;;;;;;;135.23;35.97;;;;;;;9.31;76.81;101151.06;5012871;28;20041;-77
2020/12/01 00:37:53;;;;;;;158.25;38.20;;;;;;;9.32;76.70;101144.84;5013482;28;20041;-77
2020/12/01 00:40:21;;;;;;;150.20;37.03;;;;;;;9.32;76.85;101144.84;5012766;28;20044;-77
2020/12/01 00:42:50;;;;;;;133.98;35.10;;;;;;;9.33;77.19;101143.94;5031036;28;20041;-77
2020/12/01 00:45:16;;;;;;;132.60;33.33;;;;;;;9.32;76.67;101142.19;5015216;28;20044;-77
2020/12/01 00:47:43;;;;;;;128.88;34.47;;;;;;;9.30;76.88;101144.03;5034685;28;20049;-77
2020/12/01 00:50:13;;;;;;;120.43;32.85;;;;;;;9.31;77.17;101146.63;5017177;28;20044;-77
2020/12/01 00:52:40;;;;;;;96.10;28.80;;;;;;;9.36;77.35;101149.09;5014268;28;20165;-77
2020/12/01 00:55:07;;;;;;;124.63;33.08;;;;;;;9.40;77.55;101158.66;5013288;28;20041;-77
2020/12/01 00:57:34;;;;;;;111.00;31.10;;;;;;;9.44;77.47;101155.00;4999573;28;20049;-76
2020/12/01 01:00:06;;;;;;;107.15;30.10;;;;;;;9.49;77.72;101166.28;5017213;28;20167;-77
2020/12/01 01:02:52;;;;;;;40.50;14.52;;;;;;;9.50;77.47;101152.13;5034237;28;20386;-77
2020/12/01 01:05:19;;;;;;;37.63;13.35;;;;;;;9.50;77.30;101168.00;5018777;28;20053;-77
2020/12/01 01:07:45;;;;;;;29.67;10.48;;;;;;;9.49;77.20;101145.13;5016934;28;20096;-77
2020/12/01 01:10:16;;;;;;;29.55;9.73;;;;;;;9.50;77.19;101151.28;5017830;28;20030;-77
2020/12/01 01:12:42;;;;;;;22.42;7.32;;;;;;;9.51;77.29;101153.88;5016659;28;20119;-77
2020/12/01 01:15:08;;;;;;;17.25;4.93;;;;;;;9.52;77.30;101160.84;5017268;28;20065;-77
2020/12/01 01:17:34;;;;;;;10.77;2.33;;;;;;;9.52;77.23;101150.28;5034374;28;20643;-77
2020/12/01 01:20:00;;;;;;;12.05;3.35;;;;;;;9.51;77.21;101153.88;5029542;28;20034;-77
2020/12/01 01:22:26;;;;;;;9.95;1.90;;;;;;;9.51;77.55;101153.88;5032386;28;20125;-77
2020/12/01 01:24:52;;;;;;;12.82;2.25;;;;;;;9.50;77.30;101152.13;5034532;28;20041;-77
2020/12/01 01:27:18;;;;;;;15.57;2.25;;;;;;;9.51;77.57;101156.50;5034234;28;20080;-77
2020/12/01 01:29:44;;;;;;;13.55;1.90;;;;;;;9.52;77.34;101144.13;5034161;28;20778;-77
2020/12/01 01:32:10;;;;;;;16.75;1.95;;;;;;;9.52;77.14;101174.06;5034168;28;20451;-77
2020/12/01 01:34:36;;;;;;;8.93;1.35;;;;;;;9.53;77.31;101170.53;5016828;28;20137;-77
2020/12/01 01:37:03;;;;;;;16.85;1.88;;;;;;;9.53;77.38;101180.22;5033997;28;20038;-77
2020/12/01 01:39:29;;;;;;;11.43;1.85;;;;;;;9.53;77.43;101181.09;5033998;28;20084;-78
2020/12/01 01:41:55;;;;;;;11.30;2.03;;;;;;;9.55;77.33;101195.13;5032180;28;21249;-78
2020/12/01 01:44:29;;;;;;;14.27;2.15;;;;;;;9.57;77.39;101191.56;5034391;28;20041;-78
2020/12/01 01:47:20;;;;;;;9.98;1.83;;;;;;;9.59;77.45;101197.66;5016531;28;20053;-78
2020/12/01 01:49:49;;;;;;;14.02;2.08;;;;;;;9.59;77.65;101189.72;4996966;28;20037;-78
2020/12/01 01:52:24;;;;;;;16.55;2.53;;;;;;;9.61;77.46;101190.56;5033948;28;20060;-78
2020/12/01 01:54:56;;;;;;;13.88;1.70;;;;;;;9.62;77.34;101186.97;5035004;28;20037;-79
2020/12/01 01:57:22;;;;;;;18.95;2.20;;;;;;;9.64;77.01;101193.06;5015752;28;20526;-78
2020/12/01 01:59:49;;;;;;;17.08;2.40;;;;;;;9.66;77.14;101188.59;5032833;28;20496;-78
2020/12/01 02:02:16;;;;;;;18.55;2.40;;;;;;;9.66;77.24;101193.88;5016410;28;20064;-78
2020/12/01 02:04:42;;;;;;;23.45;2.22;;;;;;;9.65;76.86;101192.16;5034061;28;20041;-78
2020/12/01 02:07:08;;;;;;;17.00;2.20;;;;;;;9.65;77.05;101194.81;5031886;28;20061;-78
2020/12/01 02:09:42;;;;;;;21.33;2.35;;;;;;;9.65;76.99;101186.88;5034240;28;20056;-78
2020/12/01 02:12:10;;;;;;;27.10;2.65;;;;;;;9.65;77.05;101181.59;5014893;28;20045;-78
2020/12/01 02:14:42;;;;;;;25.77;2.97;;;;;;;9.64;76.95;101185.13;5027610;28;20033;-78
2020/12/01 02:17:29;;;;;;;25.58;3.10;;;;;;;9.63;76.79;101194.00;5031509;28;20111;-77
2020/12/01 02:19:59;;;;;;;24.80;3.08;;;;;;;9.62;77.20;101192.28;5016097;28;20045;-78
2020/12/01 02:22:28;;;;;;;25.58;3.15;;;;;;;9.60;76.94;101180.88;5013481;28;20057;-78
2020/12/01 02:24:56;;;;;;;31.75;3.50;;;;;;;9.58;76.63;101193.31;5015519;28;20049;-77
2020/12/01 02:27:26;;;;;;;27.73;3.00;;;;;;;9.54;76.59;101185.47;5013184;28;20037;-78
2020/12/01 02:29:57;;;;;;;36.13;3.55;;;;;;;9.52;76.97;101187.31;5015962;28;20131;-78
2020/12/01 02:32:26;;;;;;;26.92;3.60;;;;;;;9.50;76.69;101189.13;5015379;28;20401;-78
2020/12/01 02:34:57;;;;;;;34.78;3.97;;;;;;;9.49;76.87;101182.13;5030084;28;20049;-78
2020/12/01 02:37:27;;;;;;;38.53;3.63;;;;;;;9.47;76.75;101189.22;5015074;28;20045;-80
2020/12/01 02:39:53;;;;;;;38.47;3.67;;;;;;;9.46;77.14;101200.75;5033567;28;20037;-78
2020/12/01 02:42:23;;;;;;;27.00;3.55;;;;;;;9.48;77.15;101190.97;5027761;28;20038;-78
2020/12/01 02:44:55;;;;;;;41.75;3.90;;;;;;;9.48;76.59;101190.13;5033416;28;20041;-78
2020/12/01 02:47:38;;;;;;;45.33;3.60;;;;;;;9.45;76.64;101184.94;5017747;28;20402;-78
2020/12/01 02:50:05;;;;;;;42.45;3.83;;;;;;;9.42;76.40;101190.31;5033159;28;20468;-79
2020/12/01 02:52:31;;;;;;;45.13;4.57;;;;;;;9.36;76.58;101180.81;5025917;28;20045;-78
2020/12/01 02:54:57;;;;;;;44.65;4.68;;;;;;;9.32;77.18;101190.66;5011594;28;20029;-78
2020/12/01 02:57:23;;;;;;;98.57;14.13;;;;;;;9.30;76.96;101191.59;5011399;28;20041;-78
2020/12/01 02:59:49;;;;;;;106.25;15.38;;;;;;;9.30;76.91;101187.16;5014304;28;20060;-77
2020/12/01 03:02:15;;;;;;;69.82;11.23;;;;;;;9.30;76.80;101189.81;5014752;28;20064;-77
2020/12/01 03:04:41;;;;;;;54.22;8.15;;;;;;;9.30;77.21;101186.31;5012566;28;20065;-77
2020/12/01 03:07:07;;;;;;;45.97;6.35;;;;;;;9.28;76.69;101181.06;5028620;28;20042;-77
2020/12/01 03:09:33;;;;;;;35.72;5.47;;;;;;;9.25;76.62;101183.84;5032992;28;20037;-78
2020/12/01 03:11:59;;;;;;;43.10;4.90;;;;;;;9.22;76.79;101183.94;5022667;28;20487;-78
2020/12/01 03:14:25;;;;;;;41.50;4.72;;;;;;;9.17;76.82;101180.56;5028837;28;20081;-78
2020/12/01 03:16:51;;;;;;;38.58;4.10;;;;;;;9.12;76.91;101183.38;4998221;28;20052;-77
2020/12/01 03:19:19;;;;;;;37.47;3.92;;;;;;;9.08;76.80;101179.13;5032862;28;20042;-78
2020/12/01 03:21:45;;;;;;;48.35;4.32;;;;;;;9.03;76.97;101173.13;5014764;28;20041;-78
2020/12/01 03:24:12;;;;;;;41.05;4.15;;;;;;;9.01;76.68;101174.97;5014856;28;20099;-78
2020/12/01 03:26:38;;;;;;;41.33;4.60;;;;;;;8.99;77.09;101179.44;5031969;28;20041;-78
2020/12/01 03:29:05;;;;;;;40.63;4.50;;;;;;;9.01;77.16;101185.53;5015045;28;20041;-78
2020/12/01 03:31:31;;;;;;;48.63;4.20;;;;;;;9.00;77.13;101181.13;5014536;28;20412;-77
2020/12/01 03:33:57;;;;;;;35.53;4.15;;;;;;;8.96;76.59;101187.44;5000158;28;20050;-77
2020/12/01 03:36:23;;;;;;;44.05;4.53;;;;;;;8.90;76.58;101182.38;5014363;28;20129;-78
2020/12/01 03:38:49;;;;;;;43.35;4.25;;;;;;;8.84;76.42;101178.16;5032626;28;20099;-79
2020/12/01 03:41:15;;;;;;;47.80;4.60;;;;;;;8.79;76.93;101184.50;5014551;28;20495;-77
2020/12/01 03:43:42;;;;;;;42.65;4.30;;;;;;;8.72;76.85;101174.13;5029628;28;20103;-78
2020/12/01 03:46:08;;;;;;;34.40;4.25;;;;;;;8.67;76.68;101180.47;5015720;28;20045;-78
2020/12/01 03:48:34;;;;;;;44.60;4.15;;;;;;;8.58;76.53;101176.34;5005582;28;20049;-78
2020/12/01 03:51:00;;;;;;;46.50;4.63;;;;;;;8.51;76.42;101178.31;5033220;28;20046;-78
2020/12/01 03:53:26;;;;;;;47.85;4.43;;;;;;;8.48;76.65;101180.19;5023497;28;20099;-78
2020/12/01 03:55:53;;;;;;;52.35;4.50;;;;;;;8.43;76.83;101184.75;5032522;28;20053;-77
2020/12/01 03:58:19;;;;;;;42.67;4.20;;;;;;;8.39;77.12;101176.88;5014223;28;20045;-78
2020/12/01 04:00:45;;;;;;;44.25;4.80;;;;;;;8.39;77.44;101171.59;5014070;28;20449;-78
2020/12/01 04:03:11;;;;;;;40.22;4.55;;;;;;;8.37;77.20;101173.41;5014340;28;20041;-78
2020/12/01 04:05:37;;;;;;;40.65;4.03;;;;;;;8.35;76.97;101169.13;5010704;28;20505;-78
2020/12/01 04:08:08;;;;;;;42.60;4.25;;;;;;;8.31;77.31;101165.69;5028996;28;20041;-78
2020/12/01 04:10:35;;;;;;;45.00;4.50;;;;;;;8.30;77.31;101165.75;5013959;28;20034;-78
2020/12/01 04:13:01;;;;;;;38.85;3.95;;;;;;;8.32;77.32;101170.03;5015182;28;20049;-78
2020/12/01 04:15:27;;;;;;;40.05;4.28;;;;;;;8.34;77.88;101176.16;5032617;28;20404;-78
2020/12/01 04:17:53;;;;;;;32.15;4.05;;;;;;;8.38;77.76;101175.16;5025768;28;20037;-78
2020/12/01 04:20:20;;;;;;;33.88;4.13;;;;;;;8.45;78.56;101169.72;5031916;28;20471;-78
2020/12/01 04:22:46;;;;;;;38.65;4.25;;;;;;;8.54;78.38;101175.56;5032520;28;20049;-78
2020/12/01 04:25:14;;;;;;;43.75;4.70;;;;;;;8.66;78.68;101169.03;5020391;28;20045;-78
2020/12/01 04:27:40;;;;;;;44.10;4.47;;;;;;;8.74;78.12;101177.59;4997285;28;20045;-78
2020/12/01 04:30:08;;;;;;;45.80;4.55;;;;;;;8.75;77.28;101168.75;5032054;28;20042;-78
2020/12/01 04:32:35;;;;;;;38.60;4.00;;;;;;;8.68;76.92;101167.22;5012593;28;20045;-78
2020/12/01 04:35:02;;;;;;;51.20;5.10;;;;;;;8.61;77.15;101181.53;5030453;28;20050;-78
2020/12/01 04:37:28;;;;;;;42.65;4.65;;;;;;;8.58;77.51;101171.06;5031426;28;20489;-78
2020/12/01 04:39:54;;;;;;;53.25;5.20;;;;;;;8.63;77.86;101174.44;5030280;28;20060;-78
2020/12/01 04:42:21;;;;;;;40.53;4.70;;;;;;;8.69;78.33;101174.22;5030845;28;20136;-78
2020/12/01 04:45:09;;;;;;;50.80;5.15;;;;;;;8.81;78.25;101177.38;5026091;28;20037;-78
2020/12/01 04:48:03;;;;;;;42.28;4.85;;;;;;;8.90;78.14;101179.72;5013330;28;20045;-78
2020/12/01 04:50:40;;;;;;;50.22;5.43;;;;;;;8.96;78.01;101182.16;5000508;28;20445;-78
2020/12/01 04:53:13;;;;;;;47.90;5.03;;;;;;;9.00;77.75;101181.13;5028000;28;20060;-78
2020/12/01 04:56:03;;;;;;;47.58;5.28;;;;;;;9.05;77.66;101176.56;5025079;28;20049;-77
2020/12/01 04:58:58;;;;;;;41.42;5.50;;;;;;;9.09;77.94;101178.19;5024547;28;20037;-78
2020/12/01 05:01:54;;;;;;;37.42;4.90;;;;;;;9.15;77.90;101180.66;5023595;28;20053;-78
2020/12/01 05:04:28;;;;;;;43.05;4.78;;;;;;;9.22;78.05;101183.94;5013503;28;20045;-78
2020/12/01 05:07:17;;;;;;;48.25;4.93;;;;;;;9.27;77.60;101191.72;5031159;28;20045;-78
2020/12/01 05:09:47;;;;;;;38.55;4.47;;;;;;;9.31;78.00;101191.56;5031024;28;20045;-78
2020/12/01 05:12:30;;;;;;;48.75;5.35;;;;;;;9.33;77.35;101194.16;5012720;28;20052;-78
2020/12/01 05:15:19;;;;;;;41.75;4.88;;;;;;;9.37;77.43;101187.84;5014624;28;20049;-77
2020/12/01 05:17:55;;;;;;;34.58;5.00;;;;;;;9.40;77.37;101182.47;4994750;28;20140;-78
2020/12/01 05:20:22;;;;;;;38.38;5.53;;;;;;;9.42;77.34;101185.91;4997275;28;20041;-78
2020/12/01 05:22:55;;;;;;;41.95;5.43;;;;;;;9.42;77.45;101190.31;5031163;28;20501;-78
2020/12/01 05:25:29;;;;;;;47.30;5.57;;;;;;;9.42;77.50;101191.19;5031328;28;20069;-77
2020/12/01 05:28:11;;;;;;;50.58;5.32;;;;;;;9.46;77.40;101192.81;5013467;28;20424;-78
2020/12/01 05:30:40;;;;;;;37.83;5.15;;;;;;;9.47;77.08;101194.53;5013160;28;20534;-78
2020/12/01 05:33:21;;;;;;;43.45;5.97;;;;;;;9.50;77.43;101205.00;5016495;28;20038;-78
2020/12/01 05:36:24;;;;;;;51.08;5.80;;;;;;;9.52;76.96;101202.31;5014602;28;20144;-78
2020/12/01 05:39:17;;;;;;;52.42;6.63;;;;;;;9.53;77.35;101204.91;5056565;23;20045;-79
2020/12/01 05:41:59;;;;;;;46.55;5.78;;;;;;;9.54;77.07;101206.63;5023868;28;20053;-79
2020/12/01 05:44:29;;;;;;;37.78;5.57;;;;;;;9.55;77.16;101207.50;5024945;28;20378;-79
2020/12/01 05:47:02;;;;;;;40.53;5.55;;;;;;;9.57;77.16;101210.97;5016557;28;20056;-79
2020/12/01 05:50:03;;;;;;;43.05;5.82;;;;;;;9.58;76.97;101206.53;5011311;28;20520;-80
2020/12/01 05:52:41;;;;;;;49.20;6.55;;;;;;;9.53;76.88;101215.47;5021060;28;20041;-80
2020/12/01 05:55:12;;;;;;;62.38;6.75;;;;;;;9.49;76.69;101211.22;5020571;28;20041;-79
2020/12/01 05:57:39;;;;;;;54.42;6.43;;;;;;;9.47;76.94;101220.97;5016358;28;20160;-79
2020/12/01 06:00:15;;;;;;;55.08;6.72;;;;;;;9.48;76.94;101217.41;4981833;28;20060;-80
2020/12/01 06:02:53;;;;;;;58.45;7.35;;;;;;;9.51;77.09;101227.00;5017733;28;20104;-79
2020/12/01 06:05:22;;;;;;;56.17;8.23;;;;;;;9.55;77.25;101218.09;5009846;28;20057;-79
2020/12/01 06:07:50;;;;;;;65.03;8.73;;;;;;;9.59;77.20;101216.16;4983187;28;20045;-80
2020/12/01 06:10:30;;;;;;;76.35;10.25;;;;;;;9.64;77.30;101222.16;5028605;28;20042;-79
2020/12/01 06:13:25;;;;;;;79.82;10.98;;;;;;;9.69;77.33;101214.94;5008721;28;20052;-79
2020/12/01 06:16:22;;;;;;;116.67;14.53;;;;;;;9.73;77.18;101221.84;5020075;28;20038;-79
2020/12/01 06:19:11;;;;;;;115.38;14.45;;;;;;;9.77;76.88;101220.81;5002260;28;20053;-79
2020/12/01 06:22:02;;;;;;;101.03;13.13;;;;;;;9.79;77.19;101226.91;5000546;28;20033;-79
2020/12/01 06:24:47;;;;;;;62.92;10.20;;;;;;;9.78;76.75;101225.19;4979633;28;20049;-79
2020/12/01 06:27:38;;;;;;;93.57;12.35;;;;;;;9.78;76.89;101230.50;5001225;28;20107;-79
2020/12/01 06:30:20;;;;;;;72.38;12.15;;;;;;;9.79;76.71;101237.50;5017759;28;20120;-79
2020/12/01 06:33:35;;;;;;;76.53;12.63;;;;;;;9.78;76.98;101230.50;5010818;28;20042;-79
2020/12/01 06:36:29;;;;;;;60.10;11.82;;;;;;;9.81;77.02;101233.00;5013092;28;20037;-79
2020/12/01 06:39:17;;;;;;;83.05;13.27;;;;;;;9.83;76.94;101239.13;4994908;28;20050;-79
2020/12/01 06:41:53;;;;;;;82.43;12.75;;;;;;;9.83;77.08;101233.84;5014933;28;20149;-79
2020/12/01 06:44:23;;;;;;;96.97;14.77;;;;;;;9.87;77.12;101235.44;5016899;28;20045;-79
2020/12/01 06:46:53;;;;;;;86.82;14.10;;;;;;;9.89;76.85;101244.19;4982815;28;20482;-79
2020/12/01 06:49:24;;;;;;;97.68;13.60;;;;;;;9.92;76.65;101248.50;5016798;28;20133;-79
2020/12/01 06:51:57;;;;;;;81.93;13.68;;;;;;;9.94;76.77;101257.25;5027151;28;20065;-79
2020/12/01 06:54:23;;;;;;;101.72;14.98;;;;;;;9.93;76.69;101256.38;5032341;28;20041;-79
2020/12/01 06:56:56;;;;;;;103.32;15.80;;;;;;;9.94;76.71;101258.13;5014052;28;20406;-79
2020/12/01 06:59:22;;;;;;;105.03;15.98;;;;;;;9.97;76.83;101259.78;5011692;28;20042;-79
2020/12/01 07:01:48;;;;;;;130.38;18.25;;;;;;;9.98;76.67;101266.78;5011745;28;20080;-79
2020/12/01 07:04:14;;;;;;;139.70;18.60;;;;;;;10.00;76.78;101266.75;5008099;28;20048;-79
2020/12/01 07:07:14;;;;;;;123.75;19.85;;;;;;;10.01;76.53;101276.44;5029105;28;20057;-79
2020/12/01 07:09:43;;;;;;;145.07;19.15;;;;;;;10.00;76.50;101278.22;5011320;28;20058;-80
2020/12/01 07:12:18;;;;;;;90.15;17.55;;;;;;;10.03;76.58;101282.53;5031149;28;20044;-79
2020/12/01 07:14:49;;;;;;;179.23;22.05;;;;;;;10.05;76.72;101283.34;5010904;28;20057;-79
2020/12/01 07:17:18;;;;;;;203.23;23.70;;;;;;;10.05;76.60;101281.53;5006359;28;20092;-79
2020/12/01 07:19:54;;;;;;;203.30;24.30;;;;;;;10.06;76.62;101287.72;5004774;28;20042;-78
2020/12/01 07:22:27;;;;;;;157.18;23.65;;;;;;;10.07;76.86;101289.44;4981910;28;20073;-78
2020/12/01 07:25:03;;;;;;;212.48;24.80;;;;;;;10.10;76.92;101284.03;5012366;28;20069;-78
2020/12/01 07:27:51;;;;;;;201.15;28.67;;;;;;;10.13;76.53;101294.50;5023970;28;20442;-78
2020/12/01 07:30:27;;;;;;;205.75;28.52;;;;;;;10.14;76.56;101297.09;5003235;28;20068;-78
2020/12/01 07:32:56;;;;;;;175.38;24.00;;;;;;;10.16;76.73;101304.97;4997963;28;20042;-78
2020/12/01 07:36:10;;;;;;;167.35;23.42;;;;;;;10.17;76.81;101312.03;5003644;28;20038;-78
2020/12/01 07:39:04;;;;;;;179.02;22.55;;;;;;;10.17;76.64;101301.44;4980386;28;20235;-79
2020/12/01 07:41:31;;;;;;;132.55;19.50;;;;;;;10.19;77.02;101302.25;5014868;28;20104;-78
2020/12/01 07:44:04;;;;;;;181.88;21.83;;;;;;;10.21;76.46;101308.34;4994841;28;20524;-78
2020/12/01 07:46:37;;;;;;;137.40;20.20;;;;;;;10.23;76.65;101305.66;4994603;28;20140;-78
2020/12/01 07:49:03;;;;;;;171.25;21.35;;;;;;;10.24;76.86;101310.84;4995046;28;20097;-78
2020/12/01 07:51:31;;;;;;;166.25;20.83;;;;;;;10.24;76.73;101308.22;5012662;28;20039;-78
2020/12/01 07:53:59;;;;;;;153.35;21.33;;;;;;;10.25;76.83;101315.25;5013292;28;20046;-79
2020/12/01 07:56:29;;;;;;;135.48;19.77;;;;;;;10.27;77.10;101313.41;4993670;28;20058;-77
2020/12/01 07:59:01;;;;;;;80.80;15.60;;;;;;;10.29;76.97;101322.16;5012092;28;20474;-77
2020/12/01 08:01:28;;;;;;;117.03;19.10;;;;;;;10.32;77.05;101326.50;4991805;28;20042;-78
2020/12/01 08:04:04;;;;;;;111.43;19.40;;;;;;;10.35;77.06;101330.84;4995426;28;20050;-78
2020/12/01 08:06:30;;;;;;;108.95;18.23;;;;;;;10.38;76.97;101330.69;5010257;28;20045;-77
2020/12/01 08:08:56;;;;;;;109.45;18.35;;;;;;;10.42;77.15;101329.69;5012093;28;20462;-77
2020/12/01 08:11:22;;;;;;;85.75;18.05;;;;;;;10.46;77.11;101333.97;5009459;28;20080;-77
2020/12/01 08:13:55;;;;;;;84.97;17.85;;;;;;;10.48;77.17;101337.41;5012311;28;20254;-77
2020/12/01 08:16:24;;;;;;;74.90;16.70;;;;;;;10.51;77.57;101332.00;5011751;28;20436;-77
2020/12/01 08:18:53;;;;;;;51.65;14.45;;;;;;;10.56;77.22;101340.63;4990357;28;20041;-77
2020/12/01 08:21:29;;;;;;;55.55;14.20;;;;;;;10.62;77.42;101340.38;5011437;28;20045;-77
2020/12/01 08:24:00;;;;;;;49.08;12.98;;;;;;;10.68;77.39;101344.59;4992050;28;20141;-77
2020/12/01 08:26:32;;;;;;;54.42;13.15;;;;;;;10.73;77.38;101345.28;4989986;28;20056;-77
2020/12/01 08:29:11;;;;;;;48.47;13.45;;;;;;;10.78;77.41;101353.09;5011750;28;20060;-79
2020/12/01 08:31:49;;;;;;;38.33;11.10;;;;;;;10.80;77.07;101353.88;4986562;28;20069;-77
2020/12/01 08:34:35;;;;;;;40.85;11.05;;;;;;;10.82;77.36;101357.34;5010991;28;20038;-77
2020/12/01 08:37:25;;;;;;;35.63;9.68;;;;;;;10.84;77.43;101366.09;5010396;28;20050;-77
2020/12/01 08:40:18;;;;;;;27.52;7.97;;;;;;;10.87;77.37;101366.00;5007242;28;20524;-77
2020/12/01 08:42:53;;;;;;;26.48;7.60;;;;;;;10.86;77.00;101370.41;5010533;28;20042;-77
2020/12/01 08:45:34;;;;;;;31.40;7.90;;;;;;;10.88;77.15;101378.31;5008601;28;20129;-77
2020/12/01 08:48:03;;;;;;;21.90;6.38;;;;;;;10.89;77.33;101374.75;5009629;28;20461;-77
2020/12/01 08:50:34;;;;;;;23.60;5.57;;;;;;;10.91;77.19;101378.19;4992985;28;20061;-77
2020/12/01 08:53:18;;;;;;;30.08;5.97;;;;;;;10.93;77.13;101381.66;5007249;28;20088;-78
2020/12/01 08:55:50;;;;;;;28.77;4.90;;;;;;;10.98;77.16;101385.00;5008874;28;20079;-77
2020/12/01 08:58:45;;;;;;;40.95;5.60;;;;;;;11.03;76.87;101388.31;5006056;28;20042;-78
2020/12/01 09:01:14;;;;;;;38.88;5.50;;;;;;;11.08;76.74;101396.09;5006700;28;20050;-78
2020/12/01 09:03:54;;;;;;;38.22;5.90;;;;;;;11.14;76.53;101395.00;4994006;28;20045;-78
2020/12/01 09:06:33;;;;;;;42.67;5.85;;;;;;;11.18;76.66;101409.88;4996816;28;20448;-78
2020/12/01 09:09:07;;;;;;;33.28;4.60;;;;;;;11.19;76.52;101399.22;5009631;28;20449;-78
2020/12/01 09:17:32;;;;;;;39.20;5.57;;;;;;;11.14;76.64;101421.53;4994831;28;20045;-79
2020/12/01 09:23:24;;;;;;;44.40;5.25;;;;;;;11.08;76.34;101428.78;4990281;28;20599;-78
2020/12/01 09:25:54;;;;;;;46.05;6.30;;;;;;;11.07;76.46;101431.47;4995192;28;20046;-78
2020/12/01 09:28:26;;;;;;;49.10;6.35;;;;;;;11.04;76.41;101435.13;4996738;28;20096;-78
2020/12/01 09:30:52;;;;;;;53.05;6.90;;;;;;;11.02;76.37;101434.31;4978376;28;20042;-78
2020/12/01 09:33:22;;;;;;;52.10;6.70;;;;;;;11.03;76.38;101433.38;4980360;28;20053;-78
2020/12/01 09:35:49;;;;;;;48.25;6.43;;;;;;;11.08;76.28;101433.22;5012441;28;20046;-78
2020/12/01 09:38:16;;;;;;;58.20;7.10;;;;;;;11.13;76.39;101447.16;5014221;28;20095;-78
2020/12/01 09:40:44;;;;;;;52.90;6.30;;;;;;;11.18;76.24;101453.16;5015896;28;20046;-78
2020/12/01 09:43:27;;;;;;;68.82;6.95;;;;;;;11.18;76.25;101454.94;4998677;28;20046;-78
2020/12/01 09:45:58;;;;;;;57.67;6.68;;;;;;;11.16;76.26;101451.50;4981949;28;20080;-79
2020/12/01 09:48:32;;;;;;;54.85;6.35;;;;;;;11.14;76.00;101469.25;5012702;28;20050;-79
2020/12/01 09:50:58;;;;;;;48.00;6.65;;;;;;;11.14;76.17;101474.53;5015318;28;20041;-78
2020/12/01 10:07:32;;;;;;;43.25;5.38;;;;;;;11.17;76.19;101474.41;5016661;28;20049;-78
2020/12/01 10:13:54;;;;;;;60.72;6.38;;;;;;;11.22;76.01;101472.47;5015157;28;20057;-78
2020/12/01 10:19:45;;;;;;;45.53;5.47;;;;;;;11.40;75.76;101482.38;4991045;28;20048;-78
2020/12/01 10:35:42;;;;;;;37.58;4.90;;;;;;;11.79;75.05;101484.41;5016770;28;20104;-79
2020/12/01 10:38:08;;;;;;;38.22;5.45;;;;;;;11.77;75.09;101475.66;5016179;28;20124;-79
2020/12/01 10:40:34;;;;;;;44.17;5.30;;;;;;;11.70;75.25;101484.75;4998096;28;20038;-79
2020/12/01 10:43:01;;;;;;;49.50;5.43;;;;;;;11.66;75.04;101477.84;4997705;28;20053;-79
2020/12/01 10:45:28;;;;;;;39.03;4.57;;;;;;;11.66;75.19;101477.84;4999899;28;20084;-79
2020/12/01 10:48:13;;;;;;;;;;;;;;;11.67;74.97;101479.56;5015775;28;20124;-78
2020/12/01 10:50:39;;;;;;;47.05;5.60;;;;;;;11.68;75.23;101481.31;5007850;28;20274;-79
2020/12/01 10:53:05;;;;;;;42.50;4.82;;;;;;;11.69;74.99;101483.03;4997272;28;20043;-79
2020/12/01 10:55:32;;;;;;;35.50;4.90;;;;;;;11.69;75.01;101477.72;5016459;28;20515;-79
2020/12/01 10:57:59;;;;;;;32.92;4.50;;;;;;;11.72;74.70;101476.75;5016686;28;20305;-79
2020/12/01 11:00:27;;;;;;;39.53;4.80;;;;;;;11.72;74.98;101484.72;4994908;28;20034;-79
2020/12/01 11:02:54;;;;;;;36.63;4.43;;;;;;;11.71;74.95;101486.47;5013518;28;20048;-79
2020/12/01 11:05:24;;;;;;;51.83;5.60;;;;;;;11.69;74.83;101493.63;5011379;28;20072;-79
2020/12/01 11:07:50;;;;;;;38.72;4.38;;;;;;;11.67;75.15;101490.19;5016778;28;20040;-79
2020/12/01 11:10:16;;;;;;;43.42;4.72;;;;;;;11.67;74.98;101495.50;5004803;28;20433;-79
2020/12/01 11:12:43;;;;;;;31.27;4.40;;;;;;;11.69;75.10;101485.69;4997547;28;20579;-80
2020/12/01 11:15:09;;;;;;;40.67;4.40;;;;;;;11.68;74.82;101494.59;4995820;28;20038;-79
2020/12/01 11:17:35;;;;;;;44.05;4.20;;;;;;;11.67;74.58;101500.78;4991331;28;20079;-80
2020/12/01 11:20:04;;;;;;;34.15;4.50;;;;;;;11.68;74.84;101494.59;5010576;28;20046;-79
2020/12/01 11:22:30;;;;;;;36.30;4.22;;;;;;;11.68;74.64;101499.88;5013777;28;20038;-79
2020/12/01 11:24:56;;;;;;;41.13;4.75;;;;;;;11.67;74.82;101500.78;5017885;28;20057;-79
2020/12/01 11:27:22;;;;;;;38.13;4.85;;;;;;;11.68;74.85;101499.88;4998130;28;20053;-79
2020/12/01 11:29:48;;;;;;;31.73;4.43;;;;;;;11.71;74.98;101497.09;5014899;28;20038;-79
2020/12/01 11:32:14;;;;;;;34.65;4.40;;;;;;;11.74;74.98;101512.91;4990794;28;20548;-79
2020/12/01 11:34:40;;;;;;;37.13;5.05;;;;;;;11.76;74.64;101515.50;4997326;28;20903;-79
2020/12/01 11:37:06;;;;;;;32.75;4.00;;;;;;;11.75;74.99;101519.94;5015483;28;20037;-79
2020/12/01 11:39:32;;;;;;;29.27;4.07;;;;;;;11.75;74.63;101509.31;5011237;28;20156;-79
2020/12/01 11:41:58;;;;;;;33.75;4.10;;;;;;;11.75;74.86;101514.63;5037330;23;20045;-81
2020/12/01 11:44:24;;;;;;;35.20;4.68;;;;;;;11.76;74.90;101513.72;5051324;28;20052;-80
2020/12/01 11:46:50;;;;;;;34.95;4.25;;;;;;;11.77;75.11;101518.09;5045686;28;20045;-81
2020/12/01 11:49:17;;;;;;;26.80;4.10;;;;;;;11.79;74.90;101516.25;5034234;28;20057;-81
2020/12/01 11:51:47;;;;;;;38.13;3.95;;;;;;;11.83;75.56;101512.53;5029017;28;20037;-81
2020/12/01 11:54:13;;;;;;;28.08;4.20;;;;;;;11.89;75.44;101516.75;5027834;28;20124;-81
2020/12/01 11:56:39;;;;;;;32.83;4.40;;;;;;;11.94;75.43;101525.44;5022331;28;21312;-81
2020/12/01 11:59:05;;;;;;;36.35;4.28;;;;;;;11.99;75.64;101518.13;5038042;28;20068;-81
2020/12/01 12:01:34;;;;;;;39.58;4.72;;;;;;;12.07;75.82;101517.81;5027156;28;20041;-81
2020/12/01 12:04:00;;;;;;;36.63;4.82;;;;;;;12.13;75.56;101525.56;5022795;28;20153;-81
2020/12/01 12:06:26;;;;;;;26.92;4.13;;;;;;;12.15;75.67;101523.69;5026708;28;20033;-81
2020/12/01 12:08:52;;;;;;;32.70;4.13;;;;;;;12.16;75.62;101528.06;5016935;28;20453;-81
2020/12/01 12:11:18;;;;;;;33.30;4.68;;;;;;;12.19;75.51;101522.66;5014031;28;20037;-81
2020/12/01 12:13:46;;;;;;;51.17;5.25;;;;;;;12.30;75.56;101531.94;5005850;28;20037;-81
2020/12/01 12:16:17;;;;;;;35.35;4.63;;;;;;;12.42;75.48;101523.47;5024575;28;20460;-81
2020/12/01 12:18:44;;;;;;;31.58;4.43;;;;;;;12.51;75.39;101515.13;5047457;28;20052;-81
2020/12/01 12:21:10;;;;;;;37.22;4.20;;;;;;;12.53;75.23;101518.59;5030067;28;20410;-81
2020/12/01 12:23:36;;;;;;;35.00;4.28;;;;;;;12.55;75.21;101527.34;5016495;28;20065;-82